sensor_id;sensor_type;location;lat;lon;timestamp;temperature;humidity
15162;DHT22;7681;48.900;9.182;2022-09-30T16:16:38;9.20;99.90
15162;DHT22;7681;48.900;9.182;2022-09-30T16:19:13;16.00;99.90
15162;DHT22;7681;48.900;9.182;2022-09-30T16:26:58;15.20;99.90
15162;DHT22;7681;48.900;9.182;2022-09-30T16:29:29;15.10;99.90
15162;DHT22;7681;48.900;9.182;2022-09-30T16:32:02;14.80;99.90
15162;DHT22;7681;48.900;9.182;2022-09-30T16:34:32;14.70;99.90
15162;DHT22;7681;48.900;9.182;2022-09-30T16:37:09;14.60;99.90
15162;DHT22;7681;48.900;9.182;2022-09-30T16:39:39;14.30;99.90
15162;DHT22;7681;48.900;9.182;2022-09-30T16:42:09;14.10;99.90
15162;DHT22;7681;48.900;9.182;2022-09-30T16:44:41;13.90;99.90
15162;DHT22;7681;48.900;9.182;2022-09-30T16:47:17;13.80;99.90
15162;DHT22;7681;48.900;9.182;2022-09-30T16:49:47;13.70;99.90
15162;DHT22;7681;48.900;9.182;2022-09-30T16:52:17;13.60;99.90
15162;DHT22;7681;48.900;9.182;2022-09-30T16:54:46;13.50;99.90
15162;DHT22;7681;48.900;9.182;2022-09-30T16:57:16;13.30;99.90
15162;DHT22;7681;48.900;9.182;2022-09-30T16:59:46;13.10;99.90
15162;DHT22;7681;48.900;9.182;2022-09-30T17:02:18;13.00;99.90
15162;DHT22;7681;48.900;9.182;2022-09-30T17:04:47;12.80;99.90
15162;DHT22;7681;48.900;9.182;2022-09-30T17:07:17;12.80;99.90
15162;DHT22;7681;48.900;9.182;2022-09-30T17:09:47;12.70;99.90
15162;DHT22;7681;48.900;9.182;2022-09-30T17:12:16;12.50;99.90
15162;DHT22;7681;48.900;9.182;2022-09-30T17:14:46;12.40;99.90
15162;DHT22;7681;48.900;9.182;2022-09-30T17:17:18;12.30;99.90
15162;DHT22;7681;48.900;9.182;2022-09-30T17:19:48;12.30;99.90
15162;DHT22;7681;48.900;9.182;2022-09-30T17:22:17;12.20;99.90
15162;DHT22;7681;48.900;9.182;2022-09-30T17:24:47;12.20;99.90
15162;DHT22;7681;48.900;9.182;2022-09-30T17:27:18;12.10;99.90
15162;DHT22;7681;48.900;9.182;2022-09-30T17:29:47;12.10;99.90
15162;DHT22;7681;48.900;9.182;2022-09-30T17:32:20;12.00;99.90
15162;DHT22;7681;48.900;9.182;2022-09-30T17:34:49;11.90;99.90
15162;DHT22;7681;48.900;9.182;2022-09-30T17:37:19;11.90;99.90
15162;DHT22;7681;48.900;9.182;2022-09-30T17:39:49;11.80;99.90
15162;DHT22;7681;48.900;9.182;2022-09-30T17:42:18;11.80;99.90
15162;DHT22;7681;48.900;9.182;2022-09-30T17:45:00;11.80;99.90
15162;DHT22;7681;48.900;9.182;2022-09-30T17:47:33;11.70;99.90
15162;DHT22;7681;48.900;9.182;2022-09-30T17:50:07;11.60;99.90
15162;DHT22;7681;48.900;9.182;2022-09-30T17:52:38;11.60;99.90
15162;DHT22;7681;48.900;9.182;2022-09-30T17:55:07;11.50;99.90
15162;DHT22;7681;48.900;9.182;2022-09-30T17:57:37;11.50;99.90
15162;DHT22;7681;48.900;9.182;2022-09-30T18:00:07;11.40;99.90
15162;DHT22;7681;48.900;9.182;2022-09-30T18:02:41;11.40;99.90
15162;DHT22;7681;48.900;9.182;2022-09-30T18:05:11;11.40;99.90
15162;DHT22;7681;48.900;9.182;2022-09-30T18:07:41;11.30;99.90
15162;DHT22;7681;48.900;9.182;2022-09-30T18:10:11;11.30;99.90
15162;DHT22;7681;48.900;9.182;2022-09-30T18:12:41;11.20;99.90
15162;DHT22;7681;48.900;9.182;2022-09-30T18:15:14;11.20;99.90
15162;DHT22;7681;48.900;9.182;2022-09-30T18:17:47;11.20;99.90
15162;DHT22;7681;48.900;9.182;2022-09-30T18:20:16;11.10;99.90
15162;DHT22;7681;48.900;9.182;2022-09-30T18:22:51;11.10;99.90
15162;DHT22;7681;48.900;9.182;2022-09-30T18:25:20;11.10;99.90
15162;DHT22;7681;48.900;9.182;2022-09-30T18:27:50;11.10;99.90
15162;DHT22;7681;48.900;9.182;2022-09-30T18:30:21;11.10;99.90
15162;DHT22;7681;48.900;9.182;2022-09-30T18:32:54;11.00;99.90
15162;DHT22;7681;48.900;9.182;2022-09-30T18:35:24;10.90;99.90
15162;DHT22;7681;48.900;9.182;2022-09-30T18:37:55;10.90;99.90
15162;DHT22;7681;48.900;9.182;2022-09-30T18:40:26;10.80;99.90
15162;DHT22;7681;48.900;9.182;2022-09-30T18:42:57;10.80;99.90
15162;DHT22;7681;48.900;9.182;2022-09-30T18:45:28;10.70;99.90
15162;DHT22;7681;48.900;9.182;2022-09-30T18:48:01;10.60;99.90
15162;DHT22;7681;48.900;9.182;2022-09-30T18:50:32;10.60;99.90
15162;DHT22;7681;48.900;9.182;2022-09-30T18:53:02;10.50;99.90
15162;DHT22;7681;48.900;9.182;2022-09-30T18:55:36;10.50;99.90
15162;DHT22;7681;48.900;9.182;2022-09-30T18:58:05;10.40;99.90
15162;DHT22;7681;48.900;9.182;2022-09-30T19:00:35;10.40;99.90
15162;DHT22;7681;48.900;9.182;2022-09-30T19:03:08;10.40;99.90
15162;DHT22;7681;48.900;9.182;2022-09-30T19:05:41;10.30;99.90
15162;DHT22;7681;48.900;9.182;2022-09-30T19:08:11;10.20;99.90
15162;DHT22;7681;48.900;9.182;2022-09-30T19:10:41;10.30;99.90
15162;DHT22;7681;48.900;9.182;2022-09-30T19:13:10;10.30;99.90
15162;DHT22;7681;48.900;9.182;2022-09-30T19:15:40;10.40;99.90
15162;DHT22;7681;48.900;9.182;2022-09-30T19:18:14;10.40;99.90
15162;DHT22;7681;48.900;9.182;2022-09-30T19:20:43;10.30;99.90
15162;DHT22;7681;48.900;9.182;2022-09-30T19:23:14;10.30;99.90
15162;DHT22;7681;48.900;9.182;2022-09-30T19:25:44;10.30;99.90
15162;DHT22;7681;48.900;9.182;2022-09-30T19:28:13;10.30;99.90
15162;DHT22;7681;48.900;9.182;2022-09-30T19:30:44;10.30;99.90
15162;DHT22;7681;48.900;9.182;2022-09-30T19:33:17;10.20;99.90
15162;DHT22;7681;48.900;9.182;2022-09-30T19:36:02;10.20;99.90
15162;DHT22;7681;48.900;9.182;2022-09-30T19:38:41;10.20;99.90
15162;DHT22;7681;48.900;9.182;2022-09-30T19:41:11;10.10;99.90
15162;DHT22;7681;48.900;9.182;2022-09-30T19:43:41;10.10;99.90
15162;DHT22;7681;48.900;9.182;2022-09-30T19:46:12;10.10;99.90
15162;DHT22;7681;48.900;9.182;2022-09-30T19:48:44;10.00;99.90
15162;DHT22;7681;48.900;9.182;2022-09-30T19:51:14;10.00;99.90
15162;DHT22;7681;48.900;9.182;2022-09-30T19:53:45;10.00;99.90
15162;DHT22;7681;48.900;9.182;2022-09-30T19:56:31;10.00;99.90
15162;DHT22;7681;48.900;9.182;2022-09-30T19:59:01;10.00;99.90
15162;DHT22;7681;48.900;9.182;2022-09-30T20:01:31;10.00;99.90
15162;DHT22;7681;48.900;9.182;2022-09-30T20:04:05;10.00;99.90
15162;DHT22;7681;48.900;9.182;2022-09-30T20:06:35;10.00;99.90
15162;DHT22;7681;48.900;9.182;2022-09-30T20:09:05;10.00;99.90
15162;DHT22;7681;48.900;9.182;2022-09-30T20:11:35;10.00;99.90
15162;DHT22;7681;48.900;9.182;2022-09-30T20:14:07;10.10;99.90
15162;DHT22;7681;48.900;9.182;2022-09-30T20:16:49;9.90;99.90
15162;DHT22;7681;48.900;9.182;2022-09-30T20:19:24;9.90;99.90
15162;DHT22;7681;48.900;9.182;2022-09-30T20:21:54;9.90;99.90
15162;DHT22;7681;48.900;9.182;2022-09-30T20:24:24;9.90;99.90
15162;DHT22;7681;48.900;9.182;2022-09-30T20:26:54;9.80;99.90
15162;DHT22;7681;48.900;9.182;2022-09-30T20:29:23;9.80;99.90
15162;DHT22;7681;48.900;9.182;2022-09-30T20:31:53;9.70;99.90
15162;DHT22;7681;48.900;9.182;2022-09-30T20:34:26;9.70;99.90
15162;DHT22;7681;48.900;9.182;2022-09-30T20:37:00;9.70;99.90
15162;DHT22;7681;48.900;9.182;2022-09-30T20:39:29;9.70;99.90
15162;DHT22;7681;48.900;9.182;2022-09-30T20:42:00;9.70;99.90
15162;DHT22;7681;48.900;9.182;2022-09-30T20:44:30;9.70;99.90
15162;DHT22;7681;48.900;9.182;2022-09-30T20:46:59;9.70;99.90
15162;DHT22;7681;48.900;9.182;2022-09-30T20:49:32;9.60;99.90
15162;DHT22;7681;48.900;9.182;2022-09-30T20:52:01;9.60;99.90
15162;DHT22;7681;48.900;9.182;2022-09-30T20:54:33;9.60;99.90
15162;DHT22;7681;48.900;9.182;2022-09-30T20:57:03;9.60;99.90
15162;DHT22;7681;48.900;9.182;2022-09-30T20:59:33;9.70;99.90
15162;DHT22;7681;48.900;9.182;2022-09-30T21:02:03;9.70;99.90
15162;DHT22;7681;48.900;9.182;2022-09-30T21:04:35;9.70;99.90
15162;DHT22;7681;48.900;9.182;2022-09-30T21:07:05;9.70;99.90
15162;DHT22;7681;48.900;9.182;2022-09-30T21:09:35;9.70;99.90
15162;DHT22;7681;48.900;9.182;2022-09-30T21:12:04;9.70;99.90
15162;DHT22;7681;48.900;9.182;2022-09-30T21:14:40;9.70;99.90
15162;DHT22;7681;48.900;9.182;2022-09-30T21:17:09;9.60;99.90
15162;DHT22;7681;48.900;9.182;2022-09-30T21:19:42;9.60;99.90
15162;DHT22;7681;48.900;9.182;2022-09-30T21:22:12;9.50;99.90
15162;DHT22;7681;48.900;9.182;2022-09-30T21:24:42;9.40;99.90
15162;DHT22;7681;48.900;9.182;2022-09-30T21:27:13;9.40;99.90
15162;DHT22;7681;48.900;9.182;2022-09-30T21:29:42;9.30;99.90
15162;DHT22;7681;48.900;9.182;2022-09-30T21:32:12;9.30;99.90
15162;DHT22;7681;48.900;9.182;2022-09-30T21:34:45;9.20;99.90
15162;DHT22;7681;48.900;9.182;2022-09-30T21:37:14;9.20;99.90
15162;DHT22;7681;48.900;9.182;2022-09-30T21:39:44;9.10;99.90
15162;DHT22;7681;48.900;9.182;2022-09-30T21:42:14;9.10;99.90
15162;DHT22;7681;48.900;9.182;2022-09-30T21:44:44;9.00;99.90
15162;DHT22;7681;48.900;9.182;2022-09-30T21:47:14;9.00;99.90
15162;DHT22;7681;48.900;9.182;2022-09-30T21:49:46;9.00;99.90
15162;DHT22;7681;48.900;9.182;2022-09-30T21:52:19;9.00;99.90
15162;DHT22;7681;48.900;9.182;2022-09-30T21:54:49;9.10;99.90
15162;DHT22;7681;48.900;9.182;2022-09-30T21:57:22;9.10;99.90
15162;DHT22;7681;48.900;9.182;2022-09-30T21:59:52;9.20;99.90
15162;DHT22;7681;48.900;9.182;2022-09-30T22:02:22;9.20;99.90
15162;DHT22;7681;48.900;9.182;2022-09-30T22:04:54;9.30;99.90
15162;DHT22;7681;48.900;9.182;2022-09-30T22:07:24;9.30;99.90
15162;DHT22;7681;48.900;9.182;2022-09-30T22:09:53;9.30;99.90
15162;DHT22;7681;48.900;9.182;2022-09-30T22:12:24;9.30;99.90
15162;DHT22;7681;48.900;9.182;2022-09-30T22:14:54;9.30;99.90
15162;DHT22;7681;48.900;9.182;2022-09-30T22:17:23;9.30;99.90
15162;DHT22;7681;48.900;9.182;2022-09-30T22:19:56;9.30;99.90
15162;DHT22;7681;48.900;9.182;2022-09-30T22:22:26;9.30;99.90
15162;DHT22;7681;48.900;9.182;2022-09-30T22:24:56;9.30;99.90
15162;DHT22;7681;48.900;9.182;2022-09-30T22:27:26;9.30;99.90
15162;DHT22;7681;48.900;9.182;2022-09-30T22:29:55;9.30;99.90
15162;DHT22;7681;48.900;9.182;2022-09-30T22:32:26;9.40;99.90
15162;DHT22;7681;48.900;9.182;2022-09-30T22:34:58;9.40;99.90
15162;DHT22;7681;48.900;9.182;2022-09-30T22:37:40;9.30;99.90
15162;DHT22;7681;48.900;9.182;2022-09-30T22:40:22;9.40;99.90
15162;DHT22;7681;48.900;9.182;2022-09-30T22:42:52;9.30;99.90
15162;DHT22;7681;48.900;9.182;2022-09-30T22:45:22;9.30;99.90
15162;DHT22;7681;48.900;9.182;2022-09-30T22:47:51;9.20;99.90
15162;DHT22;7681;48.900;9.182;2022-09-30T22:50:25;9.30;99.90
15162;DHT22;7681;48.900;9.182;2022-09-30T22:52:55;9.30;99.90
15162;DHT22;7681;48.900;9.182;2022-09-30T22:55:24;9.30;99.90
15162;DHT22;7681;48.900;9.182;2022-09-30T22:57:55;9.30;99.90
15162;DHT22;7681;48.900;9.182;2022-09-30T23:00:25;9.40;99.90
15162;DHT22;7681;48.900;9.182;2022-09-30T23:02:55;9.40;99.90
15162;DHT22;7681;48.900;9.182;2022-09-30T23:05:27;9.40;99.90
15162;DHT22;7681;48.900;9.182;2022-09-30T23:07:57;9.40;99.90
15162;DHT22;7681;48.900;9.182;2022-09-30T23:10:26;9.30;99.90
15162;DHT22;7681;48.900;9.182;2022-09-30T23:12:57;9.30;99.90
15162;DHT22;7681;48.900;9.182;2022-09-30T23:15:26;9.20;99.90
15162;DHT22;7681;48.900;9.182;2022-09-30T23:17:56;9.10;99.90
15162;DHT22;7681;48.900;9.182;2022-09-30T23:20:29;9.10;99.90
15162;DHT22;7681;48.900;9.182;2022-09-30T23:22:58;9.10;99.90
15162;DHT22;7681;48.900;9.182;2022-09-30T23:25:28;9.10;99.90
15162;DHT22;7681;48.900;9.182;2022-09-30T23:27:57;9.00;99.90
15162;DHT22;7681;48.900;9.182;2022-09-30T23:30:27;9.00;99.90
15162;DHT22;7681;48.900;9.182;2022-09-30T23:32:57;9.00;99.90
15162;DHT22;7681;48.900;9.182;2022-09-30T23:35:29;9.00;99.90
15162;DHT22;7681;48.900;9.182;2022-09-30T23:37:58;9.00;99.90
15162;DHT22;7681;48.900;9.182;2022-09-30T23:40:28;8.90;99.90
15162;DHT22;7681;48.900;9.182;2022-09-30T23:42:58;9.00;99.90
15162;DHT22;7681;48.900;9.182;2022-09-30T23:45:27;8.90;99.90
15162;DHT22;7681;48.900;9.182;2022-09-30T23:47:57;8.90;99.90
15162;DHT22;7681;48.900;9.182;2022-09-30T23:50:29;9.00;99.90
15162;DHT22;7681;48.900;9.182;2022-09-30T23:53:00;9.00;99.90
15162;DHT22;7681;48.900;9.182;2022-09-30T23:55:29;9.10;99.90
15162;DHT22;7681;48.900;9.182;2022-09-30T23:57:59;9.00;99.90
